createdAt,value
2023-01-22T00:00:11.145Z,0.70
2023-01-22T00:02:59.110Z,0.70
2023-01-22T00:05:50.498Z,0.70
2023-01-22T00:08:39.154Z,0.70
2023-01-22T00:11:27.190Z,0.80
2023-01-22T00:14:15.174Z,0.80
2023-01-22T00:17:04.595Z,0.80
2023-01-22T00:19:52.612Z,0.70
2023-01-22T00:22:40.547Z,0.80
2023-01-22T00:25:28.568Z,0.80
2023-01-22T00:28:17.308Z,0.80
2023-01-22T00:31:06.971Z,0.70
2023-01-22T00:33:56.452Z,0.70
2023-01-22T00:36:44.476Z,0.80
2023-01-22T00:39:32.442Z,0.80
2023-01-22T00:42:20.439Z,0.80
2023-01-22T00:45:09.154Z,0.80
2023-01-22T00:47:57.357Z,0.80
2023-01-22T00:50:46.811Z,0.80
2023-01-22T00:53:34.754Z,0.70
2023-01-22T00:56:22.743Z,0.80
2023-01-22T00:59:10.970Z,0.80
2023-01-22T01:01:58.947Z,0.80
2023-01-22T01:04:46.957Z,0.80
2023-01-22T01:07:36.342Z,0.90
2023-01-22T01:10:24.357Z,0.90
2023-01-22T01:13:13.013Z,0.90
2023-01-22T01:16:02.654Z,0.90
2023-01-22T01:18:50.911Z,0.90
2023-01-22T01:21:39.106Z,0.90
2023-01-22T01:24:28.669Z,0.90
2023-01-22T01:27:16.674Z,1.00
2023-01-22T01:30:05.302Z,0.90
2023-01-22T01:32:53.255Z,0.90
2023-01-22T01:35:41.632Z,0.90
2023-01-22T01:38:29.817Z,0.90
2023-01-22T01:41:21.785Z,0.70
2023-01-22T01:44:12.623Z,0.90
2023-01-22T01:47:05.335Z,0.90
2023-01-22T01:49:54.494Z,0.90
2023-01-22T01:52:42.528Z,0.90
2023-01-22T01:55:32.634Z,0.90
2023-01-22T01:58:22.930Z,0.90
2023-01-22T02:01:13.756Z,0.90
2023-01-22T02:04:02.300Z,0.90
2023-01-22T02:06:50.332Z,0.90
2023-01-22T02:09:38.453Z,0.90
2023-01-22T02:12:26.571Z,0.90
2023-01-22T02:15:15.908Z,0.90
2023-01-22T02:18:03.945Z,1.00
2023-01-22T02:20:55.598Z,1.00
2023-01-22T02:23:43.547Z,1.00
2023-01-22T02:26:31.573Z,1.00
2023-01-22T02:29:19.552Z,1.00
2023-01-22T02:32:07.912Z,1.00
2023-01-22T02:34:55.947Z,1.00
2023-01-22T02:37:45.324Z,1.00
2023-01-22T02:40:33.865Z,1.00
2023-01-22T02:43:21.831Z,1.00
2023-01-22T02:46:10.008Z,1.00
2023-01-22T02:48:57.965Z,1.10
2023-01-22T02:51:45.909Z,1.10
2023-01-22T02:54:35.300Z,1.10
2023-01-22T02:57:23.329Z,1.10
2023-01-22T03:00:12.766Z,1.10
2023-01-22T03:03:00.714Z,1.10
2023-01-22T03:05:49.822Z,1.10
2023-01-22T03:08:37.742Z,1.10
2023-01-22T03:11:30.198Z,1.10
2023-01-22T03:14:35.951Z,1.10
2023-01-22T03:17:41.865Z,1.10
2023-01-22T03:20:47.288Z,1.10
2023-01-22T03:23:35.300Z,1.10
2023-01-22T03:26:25.935Z,1.10
2023-01-22T03:29:15.287Z,1.10
2023-01-22T03:32:03.337Z,1.20
2023-01-22T03:34:51.689Z,1.20
2023-01-22T03:37:39.665Z,1.20
2023-01-22T03:40:27.644Z,1.20
2023-01-22T03:43:15.586Z,1.20
2023-01-22T03:46:07.381Z,1.20
2023-01-22T03:48:55.439Z,1.20
2023-01-22T03:51:44.559Z,1.20
2023-01-22T03:54:32.516Z,1.30
2023-01-22T03:57:20.481Z,1.30
2023-01-22T04:00:09.737Z,1.30
2023-01-22T04:02:59.111Z,1.30
2023-01-22T04:05:47.137Z,1.40
2023-01-22T04:08:36.106Z,1.30
2023-01-22T04:11:24.483Z,1.30
2023-01-22T04:14:12.575Z,1.40
2023-01-22T04:17:00.545Z,1.40
2023-01-22T04:19:49.975Z,1.30
2023-01-22T04:22:38.184Z,1.30
2023-01-22T04:25:26.115Z,1.30
2023-01-22T04:28:15.471Z,1.30
2023-01-22T04:31:04.716Z,1.40
2023-01-22T04:33:52.725Z,1.40
2023-01-22T04:36:42.057Z,1.40
2023-01-22T04:39:31.365Z,1.40
2023-01-22T04:42:19.381Z,1.40
2023-01-22T04:45:08.851Z,1.40
2023-01-22T04:47:57.236Z,1.40
2023-01-22T04:50:46.440Z,1.40
2023-01-22T04:53:35.918Z,1.40
2023-01-22T04:56:23.899Z,1.40
2023-01-22T04:59:11.987Z,1.50
2023-01-22T05:02:00.161Z,1.50
2023-01-22T05:04:48.125Z,1.50
2023-01-22T05:07:36.646Z,1.50
2023-01-22T05:10:26.043Z,1.50
2023-01-22T05:13:14.062Z,1.50
2023-01-22T05:16:02.085Z,1.50
2023-01-22T05:18:50.102Z,1.40
2023-01-22T05:21:38.222Z,1.40
2023-01-22T05:24:26.222Z,1.40
2023-01-22T05:27:15.587Z,1.40
2023-01-22T05:30:04.219Z,1.40
2023-01-22T05:32:56.664Z,1.50
2023-01-22T05:35:44.640Z,1.50
2023-01-22T05:38:32.933Z,1.50
2023-01-22T05:41:21.027Z,1.50
2023-01-22T05:44:12.759Z,1.50
2023-01-22T05:47:00.804Z,1.50
2023-01-22T05:49:48.939Z,1.50
2023-01-22T05:52:37.105Z,1.50
2023-01-22T05:55:25.190Z,1.50
2023-01-22T05:58:13.171Z,1.50
2023-01-22T06:01:02.555Z,1.50
2023-01-22T06:03:50.632Z,1.50
2023-01-22T06:06:38.662Z,1.50
2023-01-22T06:09:26.733Z,1.40
2023-01-22T06:12:15.920Z,1.40
2023-01-22T06:15:03.956Z,1.40
2023-01-22T06:17:53.325Z,1.40
2023-01-22T06:20:41.291Z,1.40
2023-01-22T06:23:29.746Z,1.50
2023-01-22T06:26:17.715Z,1.50
2023-01-22T06:29:05.821Z,1.50
2023-01-22T06:31:53.836Z,1.50
2023-01-22T06:34:43.142Z,1.50
2023-01-22T06:37:31.219Z,1.50
2023-01-22T06:40:19.517Z,1.50
2023-01-22T06:43:10.598Z,1.40
2023-01-22T06:45:58.829Z,1.40
2023-01-22T06:48:49.007Z,1.40
2023-01-22T06:51:39.458Z,1.40
2023-01-22T06:54:27.457Z,1.40
2023-01-22T06:57:16.809Z,1.40
2023-01-22T07:00:06.632Z,1.40
2023-01-22T07:02:54.790Z,1.50
2023-01-22T07:05:42.941Z,1.50
2023-01-22T07:08:33.833Z,1.50
2023-01-22T07:11:21.810Z,1.50
2023-01-22T07:14:09.844Z,1.50
2023-01-22T07:16:58.139Z,1.50
2023-01-22T07:19:46.200Z,1.50
2023-01-22T07:22:34.265Z,1.50
2023-01-22T07:25:24.080Z,1.50
2023-01-22T07:28:14.816Z,1.50
2023-01-22T07:31:03.818Z,1.60
2023-01-22T07:33:51.891Z,1.60
2023-01-22T07:36:39.855Z,1.60
2023-01-22T07:39:27.826Z,1.60
2023-01-22T07:42:17.388Z,1.60
2023-01-22T07:45:06.052Z,1.60
2023-01-22T07:47:55.067Z,1.60
2023-01-22T07:50:43.083Z,1.60
2023-01-22T07:53:31.216Z,1.60
2023-01-22T07:56:19.340Z,1.60
2023-01-22T07:59:08.679Z,1.70
2023-01-22T08:01:57.036Z,1.70
2023-01-22T08:04:45.136Z,1.70
2023-01-22T08:07:33.105Z,1.70
2023-01-22T08:10:21.424Z,1.70
2023-01-22T08:13:09.511Z,1.70
2023-01-22T08:15:58.847Z,1.70
2023-01-22T08:18:46.881Z,1.70
2023-01-22T08:21:34.838Z,1.70
2023-01-22T08:24:22.996Z,1.70
2023-01-22T08:27:10.894Z,1.80
2023-01-22T08:29:58.890Z,1.80
2023-01-22T08:32:50.346Z,1.70
2023-01-22T08:35:40.129Z,1.80
2023-01-22T08:38:28.296Z,1.80
2023-01-22T08:41:16.695Z,1.80
2023-01-22T08:44:04.952Z,1.80
2023-01-22T08:46:53.445Z,1.80
2023-01-22T08:49:42.756Z,1.90
2023-01-22T08:52:30.760Z,1.90
2023-01-22T08:55:18.800Z,1.80
2023-01-22T08:58:06.907Z,1.80
2023-01-22T09:00:55.545Z,1.80
2023-01-22T09:03:43.742Z,1.90
2023-01-22T09:06:33.948Z,1.90
2023-01-22T09:09:22.095Z,1.90
2023-01-22T09:12:10.046Z,1.90
2023-01-22T09:14:58.189Z,1.90
2023-01-22T09:17:46.299Z,1.90
2023-01-22T09:20:34.497Z,1.90
2023-01-22T09:23:24.048Z,1.90
2023-01-22T09:26:12.566Z,1.90
2023-01-22T09:29:04.138Z,2.00
2023-01-22T09:31:52.208Z,2.00
2023-01-22T09:34:40.454Z,2.00
2023-01-22T09:37:28.391Z,2.10
2023-01-22T09:40:26.027Z,2.10
2023-01-22T09:43:24.852Z,2.10
2023-01-22T09:46:18.230Z,2.10
2023-01-22T09:49:12.222Z,2.10
2023-01-22T09:52:04.961Z,2.10
2023-01-22T09:54:53.261Z,2.10
2023-01-22T09:57:46.598Z,2.20
2023-01-22T10:00:41.299Z,2.20
2023-01-22T10:03:34.262Z,2.20
2023-01-22T10:06:25.171Z,2.30
2023-01-22T10:09:16.423Z,2.30
2023-01-22T10:12:13.120Z,2.30
2023-01-22T10:15:02.512Z,2.30
2023-01-22T10:17:50.655Z,2.30
2023-01-22T10:20:40.327Z,2.30
2023-01-22T10:23:29.226Z,2.30
2023-01-22T10:26:22.020Z,2.40
2023-01-22T10:29:13.808Z,2.40
2023-01-22T10:32:07.173Z,2.40
2023-01-22T10:35:05.110Z,2.40
2023-01-22T10:37:55.652Z,2.50
2023-01-22T10:40:43.666Z,2.50
2023-01-22T10:43:34.287Z,2.50
2023-01-22T10:46:27.060Z,2.60
2023-01-22T10:49:18.973Z,2.60
2023-01-22T10:52:19.540Z,2.70
2023-01-22T10:55:08.567Z,2.70
2023-01-22T10:57:59.395Z,2.70
2023-01-22T11:00:58.252Z,2.80
2023-01-22T11:03:46.488Z,2.90
2023-01-22T11:06:43.330Z,2.90
2023-01-22T11:09:38.523Z,3.00
2023-01-22T11:12:30.359Z,3.00
2023-01-22T11:15:23.976Z,3.10
2023-01-22T11:18:17.666Z,3.10
2023-01-22T11:21:13.923Z,3.10
2023-01-22T11:24:06.065Z,3.10
2023-01-22T11:27:16.668Z,3.00
2023-01-22T11:30:27.217Z,3.00
2023-01-22T11:33:29.799Z,3.00
2023-01-22T11:36:25.050Z,3.00
2023-01-22T11:39:22.472Z,3.00
2023-01-22T11:42:24.712Z,3.00
2023-01-22T11:45:32.360Z,3.00
2023-01-22T11:48:35.242Z,3.00
2023-01-22T11:51:30.212Z,3.00
2023-01-22T11:54:44.156Z,3.00
2023-01-22T11:57:38.041Z,3.10
2023-01-22T12:00:39.926Z,2.90
2023-01-22T12:04:07.044Z,3.00
2023-01-22T12:07:17.083Z,3.00
2023-01-22T12:10:29.941Z,2.90
2023-01-22T12:13:40.687Z,3.00
2023-01-22T12:16:33.952Z,3.00
2023-01-22T12:19:40.640Z,3.00
2023-01-22T12:22:35.301Z,3.00
2023-01-22T12:25:34.958Z,3.00
2023-01-22T12:28:30.575Z,3.00
2023-01-22T12:31:25.228Z,3.00
2023-01-22T12:34:20.404Z,3.00
2023-01-22T12:37:11.758Z,3.00
2023-01-22T12:40:17.625Z,2.80
2023-01-22T12:43:08.117Z,3.00
2023-01-22T12:46:04.844Z,3.00
2023-01-22T12:49:01.382Z,3.00
2023-01-22T12:51:51.243Z,3.00
2023-01-22T12:54:39.243Z,3.00
2023-01-22T12:57:37.550Z,3.00
2023-01-22T13:00:34.155Z,3.10
2023-01-22T13:03:31.575Z,3.00
2023-01-22T13:06:22.542Z,3.00
2023-01-22T13:09:26.254Z,3.00
2023-01-22T13:12:27.685Z,3.00
2023-01-22T13:15:21.545Z,3.00
2023-01-22T13:18:21.722Z,3.00
2023-01-22T13:21:11.437Z,3.00
2023-01-22T13:24:01.462Z,3.00
2023-01-22T13:26:55.012Z,3.00
2023-01-22T13:29:45.746Z,3.00
2023-01-22T13:32:33.774Z,3.00
2023-01-22T13:35:23.268Z,3.00
2023-01-22T13:38:19.959Z,2.90
2023-01-22T13:41:11.037Z,2.90
2023-01-22T13:43:59.576Z,2.90
2023-01-22T13:46:48.232Z,3.00
2023-01-22T13:49:42.566Z,2.90
2023-01-22T13:52:33.644Z,3.00
2023-01-22T13:55:23.669Z,3.00
2023-01-22T13:58:49.866Z,2.90
2023-01-22T14:01:38.577Z,3.00
2023-01-22T14:04:36.974Z,2.90
2023-01-22T14:07:26.820Z,2.90
2023-01-22T14:10:19.921Z,3.00
2023-01-22T14:13:10.492Z,3.00
2023-01-22T14:16:06.852Z,3.00
2023-01-22T14:18:54.954Z,2.90
2023-01-22T14:21:43.338Z,2.90
2023-01-22T14:24:31.517Z,2.90
2023-01-22T14:27:21.865Z,2.90
2023-01-22T14:30:14.511Z,2.70
2023-01-22T14:33:03.112Z,2.90
2023-01-22T14:35:51.261Z,2.90
2023-01-22T14:38:39.229Z,2.90
2023-01-22T14:41:27.272Z,2.90
2023-01-22T14:44:16.641Z,2.80
2023-01-22T14:47:05.184Z,2.90
2023-01-22T14:49:54.102Z,2.80
2023-01-22T14:52:42.078Z,2.90
2023-01-22T14:55:30.034Z,2.80
2023-01-22T14:58:18.062Z,2.80
2023-01-22T15:01:17.435Z,2.80
2023-01-22T15:04:05.784Z,2.80
2023-01-22T15:06:53.739Z,2.80
2023-01-22T15:09:42.156Z,2.80
2023-01-22T15:12:30.268Z,2.80
2023-01-22T15:15:23.036Z,2.80
2023-01-22T15:18:12.359Z,2.80
2023-01-22T15:21:00.388Z,2.80
2023-01-22T15:23:48.350Z,2.80
2023-01-22T15:26:37.894Z,2.80
2023-01-22T15:29:25.897Z,2.90
2023-01-22T15:32:14.127Z,2.80
2023-01-22T15:35:03.633Z,2.80
2023-01-22T15:37:51.608Z,2.80
2023-01-22T15:40:39.572Z,2.70
2023-01-22T15:43:27.525Z,2.70
2023-01-22T15:46:15.553Z,2.70
2023-01-22T15:49:05.140Z,2.70
2023-01-22T15:51:54.655Z,2.70
2023-01-22T15:54:42.670Z,2.70
2023-01-22T15:57:30.682Z,2.70
2023-01-22T16:00:19.752Z,2.60
2023-01-22T16:03:08.278Z,2.60
2023-01-22T16:05:56.361Z,2.60
2023-01-22T16:08:47.345Z,2.60
2023-01-22T16:11:35.872Z,2.70
2023-01-22T16:14:24.067Z,2.60
2023-01-22T16:17:12.181Z,2.60
2023-01-22T16:20:00.159Z,2.60
2023-01-22T16:22:48.183Z,2.60
2023-01-22T16:25:40.935Z,2.60
2023-01-22T16:28:29.026Z,2.70
2023-01-22T16:31:20.134Z,2.60
2023-01-22T16:34:10.921Z,2.60
2023-01-22T16:36:59.507Z,2.60
2023-01-22T16:39:47.721Z,2.60
2023-01-22T16:42:37.088Z,2.60
2023-01-22T16:45:25.182Z,2.70
2023-01-22T16:48:13.166Z,2.60
2023-01-22T16:51:01.241Z,2.60
2023-01-22T16:53:49.409Z,2.60
2023-01-22T16:56:37.360Z,2.60
2023-01-22T16:59:27.853Z,2.60
2023-01-22T17:02:19.119Z,2.60
2023-01-22T17:05:12.884Z,2.60
2023-01-22T17:08:00.822Z,2.50
2023-01-22T17:10:49.252Z,2.50
2023-01-22T17:13:37.211Z,2.50
2023-01-22T17:16:26.693Z,2.50
2023-01-22T17:19:14.669Z,2.50
2023-01-22T17:22:03.336Z,2.50
2023-01-22T17:24:52.624Z,2.50
2023-01-22T17:27:40.654Z,2.50
2023-01-22T17:30:28.692Z,2.50
2023-01-22T17:33:19.773Z,2.50
2023-01-22T17:36:10.288Z,2.50
2023-01-22T17:39:00.019Z,2.50
2023-01-22T17:41:48.228Z,2.50
2023-01-22T17:44:36.180Z,2.50
2023-01-22T17:47:24.326Z,2.50
2023-01-22T17:50:14.014Z,2.50
2023-01-22T17:53:02.128Z,2.50
2023-01-22T17:55:50.150Z,2.60
2023-01-22T17:58:38.545Z,2.50
2023-01-22T18:01:30.041Z,2.60
2023-01-22T18:04:18.137Z,2.70
2023-01-22T18:07:07.541Z,2.50
2023-01-22T18:09:55.571Z,2.60
2023-01-22T18:12:44.425Z,2.50
2023-01-22T18:15:32.468Z,2.50
2023-01-22T18:18:20.467Z,2.50
2023-01-22T18:21:10.798Z,2.50
2023-01-22T18:24:00.575Z,2.50
2023-01-22T18:26:50.985Z,2.50
2023-01-22T18:29:39.313Z,2.50
2023-01-22T18:32:27.312Z,2.50
2023-01-22T18:35:15.331Z,2.50
2023-01-22T18:38:04.255Z,2.50
2023-01-22T18:40:54.138Z,2.50
2023-01-22T18:43:42.884Z,2.50
2023-01-22T18:46:34.512Z,2.50
2023-01-22T18:49:23.519Z,2.50
2023-01-22T18:52:11.471Z,2.50
2023-01-22T18:54:59.421Z,2.50
2023-01-22T18:57:53.255Z,2.50
2023-01-22T19:00:41.243Z,2.40
2023-01-22T19:03:32.480Z,2.40
2023-01-22T19:06:22.889Z,2.40
2023-01-22T19:09:14.164Z,2.40
2023-01-22T19:12:02.243Z,2.40
2023-01-22T19:14:51.813Z,2.40
2023-01-22T19:17:40.172Z,2.40
2023-01-22T19:20:28.464Z,2.40
2023-01-22T19:23:16.524Z,2.40
2023-01-22T19:26:06.674Z,2.70
2023-01-22T19:28:58.529Z,2.60
2023-01-22T19:31:52.014Z,2.50
2023-01-22T19:34:40.159Z,2.50
2023-01-22T19:37:29.410Z,2.50
2023-01-22T19:40:17.709Z,2.50
2023-01-22T19:43:06.627Z,2.50
2023-01-22T19:45:54.610Z,2.40
2023-01-22T19:48:44.205Z,2.40
2023-01-22T19:51:32.221Z,2.40
2023-01-22T19:54:21.095Z,2.40
2023-01-22T19:57:09.106Z,2.50
2023-01-22T19:59:59.080Z,2.40
2023-01-22T20:02:51.601Z,2.40
2023-01-22T20:05:41.863Z,2.40
2023-01-22T20:08:30.274Z,2.40
2023-01-22T20:11:18.439Z,2.40
2023-01-22T20:14:06.887Z,2.50
2023-01-22T20:16:54.942Z,2.50
2023-01-22T20:19:43.093Z,2.50
2023-01-22T20:22:32.525Z,2.50
2023-01-22T20:25:22.168Z,2.50
2023-01-22T20:28:10.784Z,2.50
2023-01-22T20:31:04.145Z,2.50
2023-01-22T20:33:53.413Z,2.50
2023-01-22T20:36:41.447Z,2.50
2023-01-22T20:39:31.013Z,2.50
2023-01-22T20:42:19.124Z,2.50
2023-01-22T20:45:08.356Z,2.50
2023-01-22T20:47:56.352Z,2.50
2023-01-22T20:50:44.504Z,2.40
2023-01-22T20:53:32.534Z,2.40
2023-01-22T20:56:23.801Z,2.40
2023-01-22T20:59:14.751Z,2.40
2023-01-22T21:02:02.783Z,2.50
2023-01-22T21:04:52.674Z,2.50
2023-01-22T21:07:40.944Z,2.50
2023-01-22T21:10:28.912Z,2.50
2023-01-22T21:13:18.280Z,2.50
2023-01-22T21:16:11.123Z,2.40
2023-01-22T21:19:01.033Z,2.50
2023-01-22T21:21:50.574Z,2.50
2023-01-22T21:24:38.781Z,2.50
2023-01-22T21:27:26.985Z,2.50
2023-01-22T21:30:17.216Z,2.40
2023-01-22T21:33:05.400Z,2.40
2023-01-22T21:35:53.365Z,2.40
2023-01-22T21:38:41.606Z,2.40
2023-01-22T21:41:29.854Z,2.40
2023-01-22T21:44:37.209Z,2.40
2023-01-22T21:47:26.697Z,2.40
2023-01-22T21:50:14.720Z,2.40
2023-01-22T21:53:02.695Z,2.40
2023-01-22T21:55:52.206Z,2.40
2023-01-22T21:58:45.104Z,2.40
2023-01-22T22:01:35.568Z,2.40
2023-01-22T22:04:26.823Z,2.40
2023-01-22T22:07:15.017Z,2.40
2023-01-22T22:10:03.241Z,2.30
2023-01-22T22:12:51.469Z,2.40
2023-01-22T22:15:39.439Z,2.40
2023-01-22T22:18:29.484Z,2.40
2023-01-22T22:21:19.048Z,2.40
2023-01-22T22:24:08.238Z,2.40
2023-01-22T22:26:56.357Z,2.40
2023-01-22T22:29:44.347Z,2.40
2023-01-22T22:32:32.355Z,2.30
2023-01-22T22:35:20.310Z,2.30
2023-01-22T22:38:09.679Z,2.40
2023-01-22T22:41:02.726Z,2.40
2023-01-22T22:43:52.747Z,2.40
2023-01-22T22:46:41.465Z,2.40
2023-01-22T22:49:29.439Z,2.40
2023-01-22T22:52:17.438Z,2.40
2023-01-22T22:55:08.355Z,2.40
2023-01-22T22:57:56.451Z,2.40
2023-01-22T23:00:44.435Z,2.30
2023-01-22T23:03:33.738Z,2.30
2023-01-22T23:06:26.254Z,2.30
2023-01-22T23:09:16.472Z,2.30
2023-01-22T23:12:05.970Z,2.30
2023-01-22T23:14:53.938Z,2.30
2023-01-22T23:17:42.102Z,2.30
2023-01-22T23:20:30.587Z,2.30
2023-01-22T23:23:18.592Z,2.30
2023-01-22T23:26:10.059Z,2.30
2023-01-22T23:29:02.138Z,2.30
2023-01-22T23:31:50.443Z,2.30
2023-01-22T23:34:38.476Z,2.30
2023-01-22T23:37:26.474Z,2.30
2023-01-22T23:40:14.663Z,2.30
2023-01-22T23:43:03.264Z,2.30
2023-01-22T23:45:53.138Z,2.30
2023-01-22T23:48:41.224Z,2.20
2023-01-22T23:51:29.523Z,2.30
2023-01-22T23:54:17.714Z,2.30
2023-01-22T23:57:05.731Z,2.20
2023-01-22T23:59:53.926Z,2.20
